Patterson Heights, Pennsylvania
Current Conditions -  °F | °C
As of 7:51 PM on Sunday 23 Nov 2014 (Local Time) from KPIT Reporting Station
Light Rain Light Rain  
Wind Chill: 14°   Ceiling: 11000
Heat Index: 14°   Visibility: 10mi
Dew Point:   Wind: 13mph
Humidity: 53%   Direction: 130°SE
Pressure: 29.69"   Gusts: NA
Location:  40.7641°N, 80.3864°W
Report Text: KPIT 240051Z 13011KT 10SM -RA SCT070 BKN110 OVC180 14/04 A2969 RMK AO2 RAB51 SLP063 P0000 T01390044
Loading
Personal Weather Stations






























Interactive Weather Map New forecast layout! Learn more

10-Day Weather Forecast

Advertisements
Track Severe Weather on mobile